Time;durP1;ratioP1;P1;durP2;ratioP2;P2;SDS_P1;SDS_P2;PMS_P1;PMS_P2;Temp;Humidity;BMP_temperature;BMP_pressure;BME280_temperature;BME280_humidity;BME280_pressure;Samples;Min_cycle;Max_cycle;Signal;HPM_P1;HPM_P2
2022/06/18 00:00:46;;;;;;;8.50;4.20;;;;;;;;;;5017705;28;20184;-44
2022/06/18 00:03:13;;;;;;;12.40;4.53;;;;;;;;;;5017499;28;20263;-47
2022/06/18 00:05:40;;;;;;;15.85;4.50;;;;;;;;;;5017846;28;20172;-46
2022/06/18 00:08:10;;;;;;;19.73;4.82;;;;;;;;;;5017957;28;20635;-47
2022/06/18 00:10:36;;;;;;;16.95;4.63;;;;;;;;;;5018203;28;20198;-49
2022/06/18 00:16:00;;;;;;;13.00;4.60;;;;;;;;;;5019143;28;20557;-51
2022/06/18 00:18:26;;;;;;;13.25;4.38;;;;;;;;;;5017738;28;20280;-49
2022/06/18 00:20:52;;;;;;;12.63;4.47;;;;;;;;;;5017514;28;20187;-52
2022/06/18 00:23:19;;;;;;;9.73;4.50;;;;;;;;;;5000249;28;20185;-50
2022/06/18 00:25:47;;;;;;;17.38;4.70;;;;;;;;;;5017544;28;20188;-53
2022/06/18 00:28:15;;;;;;;12.88;4.88;;;;;;;;;;5016022;28;20176;-47
2022/06/18 00:30:42;;;;;;;15.32;5.13;;;;;;;;;;5016796;28;20180;-49
2022/06/18 00:33:09;;;;;;;20.17;5.30;;;;;;;;;;4998851;28;20196;-55
2022/06/18 00:35:35;;;;;;;15.13;5.32;;;;;;;;;;4999704;28;20583;-45
2022/06/18 00:38:03;;;;;;;14.18;4.90;;;;;;;;;;5000808;28;20227;-45
2022/06/18 00:40:32;;;;;;;9.93;4.93;;;;;;;;;;5017564;28;20241;-46
2022/06/18 00:42:59;;;;;;;12.75;5.28;;;;;;;;;;4998602;28;20184;-48
2022/06/18 00:45:28;;;;;;;14.75;5.05;;;;;;;;;;5016388;28;20177;-48
2022/06/18 00:48:11;;;;;;;15.02;5.28;;;;;;;;;;5015805;28;20311;-46
2022/06/18 00:50:39;;;;;;;15.80;5.35;;;;;;;;;;5017090;28;20228;-47
2022/06/18 00:53:11;;;;;;;14.35;5.90;;;;;;;;;;5016404;28;20188;-48
2022/06/18 00:55:42;;;;;;;18.75;6.10;;;;;;;;;;4999836;28;20180;-50
2022/06/18 00:58:21;;;;;;;19.10;6.45;;;;;;;;;;5013151;28;20185;-47
2022/06/18 01:00:49;;;;;;;17.23;5.97;;;;;;;;;;4991878;28;20651;-52
2022/06/18 01:03:22;;;;;;;13.65;6.15;;;;;;;;;;5009342;28;20207;-50
2022/06/18 01:05:49;;;;;;;17.30;6.63;;;;;;;;;;5015547;28;20180;-46
2022/06/18 01:08:16;;;;;;;21.50;6.60;;;;;;;;;;4994359;28;20316;-47
2022/06/18 01:10:46;;;;;;;19.27;7.00;;;;;;;;;;4995993;28;20308;-46
2022/06/18 01:13:13;;;;;;;20.65;6.68;;;;;;;;;;5002795;28;20565;-47
2022/06/18 01:15:42;;;;;;;15.60;5.95;;;;;;;;;;4997749;28;20183;-46
2022/06/18 01:18:09;;;;;;;17.95;6.88;;;;;;;;;;4992420;28;20335;-46
2022/06/18 01:20:46;;;;;;;19.20;6.57;;;;;;;;;;4992827;28;20192;-55
2022/06/18 01:23:17;;;;;;;24.65;6.68;;;;;;;;;;4987341;28;20181;-51
2022/06/18 01:25:43;;;;;;;19.50;7.07;;;;;;;;;;4997805;28;20609;-48
2022/06/18 01:28:13;;;;;;;15.50;7.07;;;;;;;;;;4978255;28;20177;-52
2022/06/18 01:30:40;;;;;;;19.90;7.22;;;;;;;;;;4995255;28;20190;-49
2022/06/18 01:33:11;;;;;;;23.33;7.28;;;;;;;;;;4998641;28;20641;-48
2022/06/18 01:35:45;;;;;;;17.83;6.65;;;;;;;;;;5011680;28;20182;-48
2022/06/18 01:38:17;;;;;;;17.77;6.88;;;;;;;;;;4996334;28;20606;-47
2022/06/18 01:40:47;;;;;;;19.38;7.35;;;;;;;;;;5013370;28;20270;-51
2022/06/18 01:43:15;;;;;;;21.10;7.60;;;;;;;;;;4994438;28;20208;-46
2022/06/18 01:45:42;;;;;;;15.88;7.20;;;;;;;;;;4997492;28;20235;-49
2022/06/18 01:48:32;;;;;;;17.67;7.32;;;;;;;;;;4995568;28;20197;-48
2022/06/18 01:51:06;;;;;;;19.20;7.25;;;;;;;;;;4975926;28;20243;-48
2022/06/18 01:53:45;;;;;;;20.95;7.68;;;;;;;;;;4992635;28;20909;-49
2022/06/18 01:56:18;;;;;;;23.00;7.85;;;;;;;;;;4996554;28;20215;-50
2022/06/18 01:58:54;;;;;;;22.27;7.50;;;;;;;;;;4998664;28;20180;-47
2022/06/18 02:01:30;;;;;;;18.73;8.00;;;;;;;;;;4996964;28;20215;-49
2022/06/18 02:03:58;;;;;;;19.08;7.53;;;;;;;;;;4985522;28;20212;-48
2022/06/18 02:06:25;;;;;;;21.60;7.75;;;;;;;;;;4995524;28;20264;-48
2022/06/18 02:08:52;;;;;;;25.80;8.38;;;;;;;;;;4995194;28;20213;-50
2022/06/18 02:11:19;;;;;;;30.02;8.10;;;;;;;;;;5012871;28;20267;-46
2022/06/18 02:13:47;;;;;;;22.67;7.82;;;;;;;;;;4994055;28;20185;-49
2022/06/18 02:16:23;;;;;;;22.52;7.75;;;;;;;;;;4992011;28;20200;-48
2022/06/18 02:18:50;;;;;;;21.70;8.10;;;;;;;;;;4994631;28;20215;-48
2022/06/18 02:21:21;;;;;;;28.40;8.65;;;;;;;;;;5012542;28;20188;-50
2022/06/18 02:23:51;;;;;;;21.02;8.88;;;;;;;;;;4991963;28;20251;-50
2022/06/18 02:26:17;;;;;;;32.17;8.90;;;;;;;;;;5005695;28;20211;-50
2022/06/18 02:28:44;;;;;;;22.42;8.30;;;;;;;;;;4994994;28;20266;-52
2022/06/18 02:31:14;;;;;;;24.77;7.95;;;;;;;;;;4996489;28;20243;-52
2022/06/18 02:33:44;;;;;;;22.13;8.07;;;;;;;;;;4992524;28;20268;-49
2022/06/18 02:36:33;;;;;;;21.50;8.60;;;;;;;;;;4977257;28;20216;-47
2022/06/18 02:39:17;;;;;;;24.58;9.07;;;;;;;;;;4979891;28;20714;-48
2022/06/18 02:41:44;;;;;;;26.27;8.63;;;;;;;;;;4996143;28;20183;-47
2022/06/18 02:44:11;;;;;;;20.85;9.00;;;;;;;;;;4994832;28;20564;-46
2022/06/18 02:46:37;;;;;;;23.42;8.75;;;;;;;;;;5013288;28;20243;-56
2022/06/18 02:49:04;;;;;;;29.92;8.93;;;;;;;;;;4994475;28;20286;-50
2022/06/18 02:51:33;;;;;;;25.17;8.52;;;;;;;;;;4995467;28;20235;-50
2022/06/18 02:54:00;;;;;;;29.02;8.40;;;;;;;;;;4994618;28;20652;-53
2022/06/18 02:56:26;;;;;;;27.98;9.38;;;;;;;;;;4995783;28;20193;-47
2022/06/18 02:58:53;;;;;;;30.42;9.95;;;;;;;;;;5011098;28;20184;-49
2022/06/18 03:01:28;;;;;;;29.38;9.10;;;;;;;;;;4995906;28;20225;-51
2022/06/18 03:03:59;;;;;;;30.85;9.02;;;;;;;;;;5012033;28;20322;-48
2022/06/18 03:06:29;;;;;;;29.77;9.80;;;;;;;;;;5013325;28;20180;-47
2022/06/18 03:08:57;;;;;;;26.08;9.55;;;;;;;;;;4990154;28;20968;-52
2022/06/18 03:14:13;;;;;;;24.52;9.27;;;;;;;;;;4995099;28;20354;-48
2022/06/18 03:16:39;;;;;;;28.60;9.55;;;;;;;;;;5012040;28;20176;-48
2022/06/18 03:19:06;;;;;;;24.23;9.65;;;;;;;;;;5006946;28;20694;-49
2022/06/18 03:21:35;;;;;;;20.50;8.93;;;;;;;;;;5011944;28;20660;-50
2022/06/18 03:24:02;;;;;;;26.40;8.82;;;;;;;;;;4994436;28;20552;-48
2022/06/18 03:26:31;;;;;;;26.42;9.77;;;;;;;;;;4990822;28;20194;-45
2022/06/18 03:28:58;;;;;;;29.75;9.93;;;;;;;;;;4985248;28;20291;-47
2022/06/18 03:31:25;;;;;;;20.83;10.25;;;;;;;;;;4994108;28;20188;-52
2022/06/18 03:33:51;;;;;;;33.45;9.40;;;;;;;;;;5010766;28;20192;-52
2022/06/18 03:36:19;;;;;;;26.17;9.68;;;;;;;;;;4995537;28;20204;-48
2022/06/18 03:38:47;;;;;;;23.35;8.88;;;;;;;;;;4993307;28;20207;-50
2022/06/18 03:41:14;;;;;;;23.83;9.48;;;;;;;;;;4979046;28;20262;-44
2022/06/18 03:43:40;;;;;;;26.08;9.18;;;;;;;;;;4991662;28;20192;-47
2022/06/18 03:46:08;;;;;;;26.17;9.48;;;;;;;;;;5010106;28;20212;-47
2022/06/18 03:48:35;;;;;;;26.75;9.23;;;;;;;;;;4991263;28;20251;-51
2022/06/18 03:51:01;;;;;;;23.58;9.30;;;;;;;;;;4988784;28;20315;-49
2022/06/18 03:53:28;;;;;;;25.65;9.20;;;;;;;;;;4975526;28;20197;-48
2022/06/18 03:55:54;;;;;;;30.13;9.90;;;;;;;;;;4984351;28;20189;-47
2022/06/18 03:58:21;;;;;;;28.38;10.18;;;;;;;;;;4990956;28;20534;-49
2022/06/18 04:00:49;;;;;;;22.30;8.98;;;;;;;;;;4975835;28;20218;-49
2022/06/18 04:03:17;;;;;;;21.98;9.07;;;;;;;;;;4991284;28;20181;-50
2022/06/18 04:05:44;;;;;;;24.15;9.27;;;;;;;;;;4976054;28;20200;-48
2022/06/18 04:08:14;;;;;;;22.08;9.20;;;;;;;;;;4995337;28;20268;-50
2022/06/18 04:10:52;;;;;;;24.55;10.18;;;;;;;;;;5011143;28;20896;-44
2022/06/18 04:13:19;;;;;;;22.80;10.02;;;;;;;;;;4992909;28;20283;-52
2022/06/18 04:15:57;;;;;;;25.05;10.57;;;;;;;;;;4995316;28;20223;-51
2022/06/18 04:18:26;;;;;;;25.13;10.48;;;;;;;;;;4973085;28;20687;-48
2022/06/18 04:20:54;;;;;;;26.23;11.90;;;;;;;;;;4961728;28;20219;-48
2022/06/18 04:23:21;;;;;;;24.05;11.00;;;;;;;;;;4993547;28;20209;-48
2022/06/18 04:25:47;;;;;;;31.65;12.10;;;;;;;;;;4962759;28;20276;-51
2022/06/18 04:28:14;;;;;;;26.17;11.48;;;;;;;;;;4992668;28;20314;-51
2022/06/18 04:30:46;;;;;;;25.08;11.38;;;;;;;;;;4979332;28;20208;-51
2022/06/18 04:33:23;;;;;;;27.45;11.65;;;;;;;;;;4991256;28;20605;-51
2022/06/18 04:35:56;;;;;;;31.15;12.20;;;;;;;;;;4975468;28;20614;-53
2022/06/18 04:38:23;;;;;;;31.90;12.38;;;;;;;;;;4978750;28;20180;-50
2022/06/18 04:40:53;;;;;;;28.83;11.18;;;;;;;;;;4998855;28;20184;-52
2022/06/18 04:43:24;;;;;;;29.13;11.20;;;;;;;;;;5012455;28;20189;-53
2022/06/18 04:45:52;;;;;;;25.25;12.02;;;;;;;;;;4981783;28;20181;-53
2022/06/18 04:48:24;;;;;;;24.17;10.90;;;;;;;;;;4993344;28;20181;-57
2022/06/18 04:50:52;;;;;;;23.48;11.02;;;;;;;;;;4994361;28;20233;-53
2022/06/18 04:53:18;;;;;;;25.80;11.48;;;;;;;;;;4996714;28;20716;-51
2022/06/18 04:55:48;;;;;;;21.17;9.98;;;;;;;;;;4996846;28;20177;-49
2022/06/18 04:58:15;;;;;;;24.30;9.73;;;;;;;;;;5010913;28;20191;-49
2022/06/18 05:00:48;;;;;;;34.85;10.02;;;;;;;;;;5009712;28;20250;-47
2022/06/18 05:03:24;;;;;;;22.98;9.88;;;;;;;;;;4995626;28;20191;-50
2022/06/18 05:06:13;;;;;;;27.73;9.40;;;;;;;;;;4987788;28;20180;-50
2022/06/18 05:08:59;;;;;;;22.67;8.77;;;;;;;;;;4994118;28;20216;-50
2022/06/18 05:11:46;;;;;;;25.42;8.82;;;;;;;;;;5001233;28;20200;-52
2022/06/18 05:14:21;;;;;;;20.15;7.68;;;;;;;;;;5013892;28;20180;-48
2022/06/18 05:17:02;;;;;;;21.60;7.57;;;;;;;;;;5014678;28;20180;-48
2022/06/18 05:19:32;;;;;;;22.63;7.63;;;;;;;;;;4993671;28;20188;-50
2022/06/18 05:22:01;;;;;;;19.45;7.53;;;;;;;;;;5013432;28;20303;-48
2022/06/18 05:24:28;;;;;;;18.90;7.68;;;;;;;;;;4995771;28;20705;-52
2022/06/18 05:26:56;;;;;;;20.10;8.32;;;;;;;;;;4996857;28;20194;-51
2022/06/18 05:29:23;;;;;;;20.92;8.38;;;;;;;;;;5010522;28;20553;-51
2022/06/18 05:31:49;;;;;;;21.17;7.72;;;;;;;;;;5013740;28;20655;-48
2022/06/18 05:34:16;;;;;;;16.38;8.23;;;;;;;;;;4993376;28;20299;-51
2022/06/18 05:36:44;;;;;;;24.38;7.65;;;;;;;;;;4993586;28;20177;-49
2022/06/18 05:39:14;;;;;;;19.17;9.63;;;;;;;;;;5003350;28;20193;-49
2022/06/18 05:41:40;;;;;;;17.75;8.35;;;;;;;;;;4980208;28;20188;-53
2022/06/18 05:44:07;;;;;;;23.75;8.80;;;;;;;;;;4995700;28;20690;-49
2022/06/18 05:46:33;;;;;;;16.67;7.32;;;;;;;;;;5013746;28;20238;-48
2022/06/18 05:48:59;;;;;;;22.38;8.15;;;;;;;;;;4978792;28;20209;-52
2022/06/18 05:51:25;;;;;;;15.32;7.20;;;;;;;;;;5013952;28;20238;-51
2022/06/18 05:53:52;;;;;;;16.40;6.82;;;;;;;;;;4995769;28;20632;-48
2022/06/18 05:56:56;;;;;;;19.88;7.82;;;;;;;;;;4991338;28;20188;-51
2022/06/18 05:59:34;;;;;;;14.38;6.28;;;;;;;;;;5009175;28;20222;-47
2022/06/18 06:02:01;;;;;;;16.92;7.10;;;;;;;;;;4996534;28;20283;-51
2022/06/18 06:04:29;;;;;;;17.50;6.90;;;;;;;;;;4995875;28;20640;-48
2022/06/18 06:06:56;;;;;;;15.30;6.65;;;;;;;;;;4996007;28;20184;-49
2022/06/18 06:12:09;;;;;;;20.95;6.70;;;;;;;;;;5012341;28;20267;-52
2022/06/18 06:14:36;;;;;;;13.48;6.03;;;;;;;;;;4991899;28;20192;-50
2022/06/18 06:17:03;;;;;;;19.02;6.63;;;;;;;;;;4994688;28;20189;-46
2022/06/18 06:19:29;;;;;;;17.02;6.60;;;;;;;;;;5006617;28;20282;-49
2022/06/18 06:21:56;;;;;;;17.13;5.72;;;;;;;;;;4995562;28;20187;-51
2022/06/18 06:24:22;;;;;;;12.43;5.50;;;;;;;;;;4979365;28;20188;-46
2022/06/18 06:26:48;;;;;;;14.98;5.20;;;;;;;;;;5011664;28;20180;-49
2022/06/18 06:29:14;;;;;;;8.55;4.82;;;;;;;;;;5012664;28;20695;-46
2022/06/18 06:31:40;;;;;;;10.55;4.82;;;;;;;;;;5012614;28;20176;-45
2022/06/18 06:34:06;;;;;;;11.85;5.07;;;;;;;;;;5012735;28;20275;-47
2022/06/18 06:36:33;;;;;;;10.98;5.15;;;;;;;;;;5012692;28;20184;-52
2022/06/18 06:38:59;;;;;;;10.13;4.30;;;;;;;;;;5010021;28;20212;-46
2022/06/18 06:41:27;;;;;;;10.45;3.88;;;;;;;;;;5012558;28;20267;-43
2022/06/18 06:43:53;;;;;;;9.88;4.30;;;;;;;;;;5011301;28;20180;-49
2022/06/18 06:46:21;;;;;;;8.85;4.00;;;;;;;;;;5010801;28;20197;-45
2022/06/18 06:48:47;;;;;;;8.05;3.60;;;;;;;;;;4978424;28;20224;-48
2022/06/18 06:51:15;;;;;;;11.85;4.43;;;;;;;;;;5011687;28;20691;-46
2022/06/18 06:53:41;;;;;;;8.85;4.95;;;;;;;;;;5011004;28;20200;-44
2022/06/18 06:58:56;;;;;;;10.40;3.75;;;;;;;;;;5010776;28;20671;-47
2022/06/18 07:01:23;;;;;;;9.90;4.63;;;;;;;;;;5013064;28;20647;-45
2022/06/18 07:03:49;;;;;;;8.63;3.78;;;;;;;;;;5010283;28;20184;-47
2022/06/18 07:06:16;;;;;;;8.98;3.95;;;;;;;;;;5012200;28;20207;-45
2022/06/18 07:08:43;;;;;;;12.35;4.05;;;;;;;;;;5009375;28;20192;-51
2022/06/18 07:11:10;;;;;;;11.82;4.00;;;;;;;;;;5012368;28;20652;-47
2022/06/18 07:13:36;;;;;;;10.27;4.32;;;;;;;;;;5012108;28;20203;-48
2022/06/18 07:16:02;;;;;;;11.25;4.18;;;;;;;;;;5013388;28;20177;-48
2022/06/18 07:18:32;;;;;;;11.20;4.07;;;;;;;;;;5011371;28;20675;-44
2022/06/18 07:20:59;;;;;;;9.55;4.10;;;;;;;;;;5011578;28;20184;-50
2022/06/18 07:23:25;;;;;;;10.85;3.70;;;;;;;;;;5010370;28;20184;-47
2022/06/18 07:25:52;;;;;;;12.82;4.25;;;;;;;;;;5010511;28;20188;-45
2022/06/18 07:28:18;;;;;;;9.90;4.07;;;;;;;;;;5010553;28;20584;-47
2022/06/18 07:30:46;;;;;;;12.10;3.95;;;;;;;;;;4978551;28;20274;-46
2022/06/18 07:33:18;;;;;;;9.02;4.57;;;;;;;;;;4994247;28;20181;-50
2022/06/18 07:35:44;;;;;;;12.38;4.60;;;;;;;;;;5013043;28;20234;-44
2022/06/18 07:38:10;;;;;;;13.18;3.83;;;;;;;;;;5010867;28;20181;-48
2022/06/18 07:40:44;;;;;;;13.45;3.83;;;;;;;;;;5011855;28;20184;-47
2022/06/18 07:43:13;;;;;;;10.13;3.88;;;;;;;;;;4994023;28;20181;-49
2022/06/18 07:45:39;;;;;;;10.07;3.63;;;;;;;;;;4995277;28;20763;-47
2022/06/18 07:48:05;;;;;;;11.82;3.38;;;;;;;;;;5008645;28;20197;-49
2022/06/18 07:50:32;;;;;;;7.65;3.42;;;;;;;;;;4992298;28;20258;-47
2022/06/18 07:52:58;;;;;;;9.00;3.47;;;;;;;;;;5008791;28;20271;-44
2022/06/18 07:55:26;;;;;;;6.00;3.65;;;;;;;;;;5011948;28;20176;-50
2022/06/18 07:57:52;;;;;;;8.68;3.80;;;;;;;;;;5006296;28;20188;-50
2022/06/18 08:00:20;;;;;;;8.07;3.55;;;;;;;;;;4994259;28;20188;-50
2022/06/18 08:02:47;;;;;;;10.77;3.50;;;;;;;;;;5011721;28;20204;-48
2022/06/18 08:05:14;;;;;;;7.72;3.70;;;;;;;;;;5012826;28;20271;-45
2022/06/18 08:07:40;;;;;;;10.63;3.83;;;;;;;;;;5011396;28;20567;-53
2022/06/18 08:10:06;;;;;;;7.70;3.70;;;;;;;;;;5007677;28;20221;-48
2022/06/18 08:12:33;;;;;;;15.50;3.67;;;;;;;;;;5013623;28;20184;-46
2022/06/18 08:15:01;;;;;;;6.10;3.30;;;;;;;;;;5012602;28;20168;-47
2022/06/18 08:17:27;;;;;;;9.88;4.70;;;;;;;;;;5016567;28;20172;-47
2022/06/18 08:19:53;;;;;;;12.93;5.68;;;;;;;;;;4978440;28;20220;-46
2022/06/18 08:22:22;;;;;;;11.45;4.03;;;;;;;;;;5015613;28;20199;-45
2022/06/18 08:24:48;;;;;;;7.30;3.50;;;;;;;;;;5015117;28;20283;-44
2022/06/18 08:27:14;;;;;;;8.02;3.42;;;;;;;;;;5016800;28;20543;-49
2022/06/18 08:29:41;;;;;;;14.52;3.67;;;;;;;;;;5014117;28;20668;-45
2022/06/18 08:32:07;;;;;;;8.05;3.33;;;;;;;;;;5014355;28;20192;-49
2022/06/18 08:34:33;;;;;;;11.80;3.40;;;;;;;;;;5014718;28;20215;-50
2022/06/18 08:37:00;;;;;;;8.68;3.67;;;;;;;;;;5016243;28;20234;-51
2022/06/18 08:39:27;;;;;;;8.73;3.33;;;;;;;;;;5013854;28;20196;-49
2022/06/18 08:41:59;;;;;;;9.63;3.63;;;;;;;;;;5016253;28;20200;-45
2022/06/18 08:44:43;;;;;;;7.25;3.53;;;;;;;;;;4994643;28;20193;-50
2022/06/18 08:47:18;;;;;;;8.48;3.53;;;;;;;;;;5010560;28;20191;-47
2022/06/18 08:49:58;;;;;;;9.90;3.55;;;;;;;;;;4977912;28;20208;-44
2022/06/18 08:52:38;;;;;;;10.10;3.67;;;;;;;;;;4995641;28;20521;-49
2022/06/18 08:55:05;;;;;;;11.02;3.75;;;;;;;;;;5012603;28;20212;-49
2022/06/18 08:57:34;;;;;;;10.85;3.38;;;;;;;;;;4998299;28;20172;-48
2022/06/18 09:00:00;;;;;;;9.02;3.45;;;;;;;;;;4996545;28;20192;-49
2022/06/18 09:02:40;;;;;;;9.93;3.40;;;;;;;;;;5014360;28;20212;-47
2022/06/18 09:05:07;;;;;;;6.55;3.35;;;;;;;;;;5014133;28;20184;-46
2022/06/18 09:07:51;;;;;;;9.23;2.95;;;;;;;;;;5014445;28;20230;-48
2022/06/18 09:10:17;;;;;;;5.47;2.80;;;;;;;;;;5003945;28;20236;-47
2022/06/18 09:12:47;;;;;;;9.73;3.03;;;;;;;;;;5014795;28;20671;-50
2022/06/18 09:15:18;;;;;;;8.65;3.42;;;;;;;;;;5013994;28;20180;-50
2022/06/18 09:18:13;;;;;;;9.27;2.78;;;;;;;;;;5013108;28;20208;-51
2022/06/18 09:20:48;;;;;;;6.25;2.67;;;;;;;;;;4935826;28;20216;-43
2022/06/18 09:23:23;;;;;;;6.05;2.42;;;;;;;;;;5005632;28;20186;-49
2022/06/18 09:25:51;;;;;;;7.13;2.60;;;;;;;;;;5014159;28;20179;-49
2022/06/18 09:28:20;;;;;;;5.65;2.90;;;;;;;;;;5013898;28;20585;-49
2022/06/18 09:31:02;;;;;;;12.20;2.80;;;;;;;;;;5013009;28;20223;-47
2022/06/18 09:33:29;;;;;;;6.72;2.70;;;;;;;;;;5013006;28;20279;-45
2022/06/18 09:35:56;;;;;;;4.93;2.58;;;;;;;;;;4997765;28;20161;-46
2022/06/18 09:38:27;;;;;;;6.75;2.65;;;;;;;;;;4993818;28;20585;-47
2022/06/18 09:40:57;;;;;;;7.40;2.75;;;;;;;;;;4998217;28;20185;-49
2022/06/18 09:43:37;;;;;;;10.18;2.95;;;;;;;;;;4995841;28;20250;-45
2022/06/18 09:46:09;;;;;;;8.32;3.25;;;;;;;;;;5015168;28;20211;-53
2022/06/18 09:48:37;;;;;;;11.02;4.00;;;;;;;;;;5014175;28;20409;-55
2022/06/18 09:51:05;;;;;;;10.60;3.67;;;;;;;;;;4979032;28;20248;-53
2022/06/18 09:53:31;;;;;;;10.10;3.58;;;;;;;;;;4987970;28;20185;-53
2022/06/18 09:56:08;;;;;;;10.43;3.53;;;;;;;;;;4994911;28;20188;-47
2022/06/18 09:58:42;;;;;;;7.38;3.17;;;;;;;;;;5010464;28;20184;-51
2022/06/18 10:01:11;;;;;;;11.52;3.00;;;;;;;;;;5011802;28;20180;-48
2022/06/18 10:09:22;;;;;;;8.07;2.80;;;;;;;;;;4986925;28;20232;-46
2022/06/18 10:11:48;;;;;;;10.48;3.10;;;;;;;;;;4992901;28;20284;-45
2022/06/18 10:14:22;;;;;;;6.05;2.92;;;;;;;;;;4995628;28;20279;-52
2022/06/18 10:16:54;;;;;;;9.07;2.78;;;;;;;;;;5009042;28;20193;-47
2022/06/18 10:19:20;;;;;;;10.73;2.85;;;;;;;;;;5013059;28;20193;-44
2022/06/18 10:21:50;;;;;;;6.32;2.42;;;;;;;;;;5012345;28;20188;-46
2022/06/18 10:24:32;;;;;;;11.60;3.00;;;;;;;;;;5014235;28;20617;-50
2022/06/18 10:27:17;;;;;;;6.40;2.60;;;;;;;;;;5011231;28;20204;-50
2022/06/18 10:29:46;;;;;;;7.70;2.50;;;;;;;;;;5013249;28;20282;-45
2022/06/18 10:32:17;;;;;;;9.43;2.92;;;;;;;;;;5012301;28;20191;-44
2022/06/18 10:34:55;;;;;;;11.48;3.40;;;;;;;;;;5013713;28;20200;-47
2022/06/18 10:37:24;;;;;;;8.48;3.00;;;;;;;;;;5009623;28;20197;-47
2022/06/18 10:40:17;;;;;;;6.43;2.50;;;;;;;;;;5012335;28;20189;-47
2022/06/18 10:42:52;;;;;;;5.38;2.83;;;;;;;;;;4981375;28;20276;-44
2022/06/18 10:45:30;;;;;;;6.57;2.60;;;;;;;;;;4993052;28;20184;-43
2022/06/18 10:47:56;;;;;;;5.55;2.30;;;;;;;;;;5006381;28;20185;-49
2022/06/18 10:50:24;;;;;;;7.20;2.88;;;;;;;;;;5011982;28;20243;-48
2022/06/18 10:52:58;;;;;;;4.13;2.42;;;;;;;;;;4994729;28;20209;-49
2022/06/18 10:55:24;;;;;;;6.18;2.55;;;;;;;;;;5011430;28;20183;-47
2022/06/18 10:57:50;;;;;;;6.30;2.33;;;;;;;;;;5010444;28;20250;-48
2022/06/18 11:00:23;;;;;;;7.80;2.40;;;;;;;;;;4995153;28;20223;-46
2022/06/18 11:02:51;;;;;;;8.23;2.58;;;;;;;;;;5010780;28;20180;-50
2022/06/18 11:05:27;;;;;;;4.57;2.33;;;;;;;;;;5013029;28;20191;-50
2022/06/18 11:07:53;;;;;;;4.82;2.53;;;;;;;;;;5011892;28;20176;-46
2022/06/18 11:10:38;;;;;;;7.57;2.78;;;;;;;;;;5008885;28;20718;-45
2022/06/18 11:13:06;;;;;;;8.57;2.67;;;;;;;;;;5011749;28;20197;-46
2022/06/18 11:15:38;;;;;;;6.28;2.75;;;;;;;;;;5013534;28;20181;-46
2022/06/18 11:18:24;;;;;;;7.20;2.65;;;;;;;;;;4975231;28;20243;-49
2022/06/18 11:21:03;;;;;;;7.95;4.43;;;;;;;;;;5002999;28;20226;-47
2022/06/18 11:23:30;;;;;;;6.60;2.70;;;;;;;;;;5011267;28;20183;-45
2022/06/18 11:25:57;;;;;;;7.55;2.75;;;;;;;;;;4990071;28;20272;-49
2022/06/18 11:28:29;;;;;;;15.85;2.80;;;;;;;;;;5008794;28;20180;-51
2022/06/18 11:30:56;;;;;;;6.97;2.30;;;;;;;;;;5009206;28;20266;-48
2022/06/18 11:33:33;;;;;;;6.05;2.47;;;;;;;;;;4992589;28;20216;-46
2022/06/18 11:36:09;;;;;;;6.82;2.22;;;;;;;;;;5011832;28;20188;-49
2022/06/18 11:38:36;;;;;;;6.03;2.50;;;;;;;;;;5006580;28;20188;-45
2022/06/18 11:41:19;;;;;;;6.15;2.78;;;;;;;;;;5005189;28;20197;-47
2022/06/18 11:43:52;;;;;;;5.65;2.80;;;;;;;;;;5012189;28;20180;-47
2022/06/18 11:46:28;;;;;;;6.45;3.00;;;;;;;;;;5009170;28;20184;-46
2022/06/18 11:49:13;;;;;;;6.15;2.70;;;;;;;;;;5011614;28;20231;-48
2022/06/18 11:51:39;;;;;;;5.10;2.63;;;;;;;;;;5006377;28;20224;-46
2022/06/18 11:54:12;;;;;;;5.93;2.70;;;;;;;;;;4979064;28;20192;-50
2022/06/18 11:56:41;;;;;;;6.55;2.90;;;;;;;;;;4999625;28;20184;-47
2022/06/18 11:59:30;;;;;;;16.08;3.50;;;;;;;;;;4978324;28;20199;-44
2022/06/18 12:02:00;;;;;;;8.50;3.55;;;;;;;;;;4988786;28;20203;-47
2022/06/18 12:04:32;;;;;;;7.63;3.47;;;;;;;;;;5009663;28;20184;-46
2022/06/18 12:07:02;;;;;;;8.32;3.60;;;;;;;;;;5008996;28;20188;-51
2022/06/18 12:09:29;;;;;;;10.73;3.20;;;;;;;;;;5013101;28;20302;-44
2022/06/18 12:12:14;;;;;;;10.40;3.20;;;;;;;;;;5011021;28;20184;-44
2022/06/18 12:14:55;;;;;;;10.32;2.85;;;;;;;;;;5008339;28;20173;-45
2022/06/18 12:17:40;;;;;;;7.75;3.10;;;;;;;;;;5010947;28;20192;-44
2022/06/18 12:20:18;;;;;;;10.45;3.67;;;;;;;;;;5011188;28;20191;-54
2022/06/18 12:22:52;;;;;;;11.00;3.10;;;;;;;;;;5011068;28;20184;-44
2022/06/18 12:25:35;;;;;;;14.23;3.30;;;;;;;;;;4995169;28;20291;-46
2022/06/18 12:28:10;;;;;;;11.38;2.83;;;;;;;;;;5011101;28;20212;-45
2022/06/18 12:30:45;;;;;;;7.50;2.17;;;;;;;;;;5008640;28;20220;-45
2022/06/18 12:33:12;;;;;;;5.25;1.90;;;;;;;;;;5010431;28;20176;-46
2022/06/18 12:35:48;;;;;;;8.50;2.17;;;;;;;;;;4994938;28;20177;-48
2022/06/18 12:38:17;;;;;;;7.00;2.20;;;;;;;;;;4991013;28;20189;-46
2022/06/18 12:40:50;;;;;;;5.65;1.90;;;;;;;;;;4994152;28;20192;-49
2022/06/18 12:43:36;;;;;;;6.85;2.20;;;;;;;;;;5010880;28;20191;-47
2022/06/18 12:46:13;;;;;;;9.15;2.35;;;;;;;;;;5011211;28;20315;-47
2022/06/18 12:48:59;;;;;;;5.38;1.73;;;;;;;;;;5012023;28;20176;-48
2022/06/18 12:51:31;;;;;;;7.38;2.00;;;;;;;;;;5009313;28;20255;-47
2022/06/18 12:54:16;;;;;;;4.95;1.73;;;;;;;;;;4993870;28;20656;-47
2022/06/18 12:57:01;;;;;;;12.30;2.33;;;;;;;;;;5006542;28;20604;-49
2022/06/18 12:59:30;;;;;;;10.40;3.45;;;;;;;;;;4994528;28;20224;-46
2022/06/18 13:01:59;;;;;;;7.97;3.03;;;;;;;;;;5001760;28;20181;-46
2022/06/18 13:04:44;;;;;;;6.60;2.20;;;;;;;;;;5015265;28;20191;-45
2022/06/18 13:07:18;;;;;;;3.88;1.70;;;;;;;;;;4996805;28;20196;-42
2022/06/18 13:09:54;;;;;;;8.38;1.98;;;;;;;;;;5016066;28;20687;-49
2022/06/18 13:12:39;;;;;;;6.28;1.50;;;;;;;;;;5011082;28;20272;-44
2022/06/18 13:15:27;;;;;;;6.47;1.70;;;;;;;;;;5015625;28;20177;-45
2022/06/18 13:17:56;;;;;;;8.48;1.80;;;;;;;;;;4996504;28;20212;-47
2022/06/18 13:20:42;;;;;;;4.80;1.83;;;;;;;;;;5012417;28;20267;-46
2022/06/18 13:28:43;;;;;;;5.57;2.03;;;;;;;;;;5015768;28;20188;-42
2022/06/18 13:31:15;;;;;;;5.60;2.00;;;;;;;;;;5014867;28;20268;-48
2022/06/18 13:33:43;;;;;;;10.15;1.90;;;;;;;;;;5000539;28;20177;-44
2022/06/18 13:36:27;;;;;;;9.15;1.85;;;;;;;;;;5014110;28;20192;-45
2022/06/18 13:39:02;;;;;;;4.75;1.63;;;;;;;;;;4995634;28;20635;-46
2022/06/18 13:41:33;;;;;;;5.40;2.03;;;;;;;;;;4979822;28;20183;-47
2022/06/18 13:44:05;;;;;;;5.97;2.00;;;;;;;;;;5013984;28;20185;-54
2022/06/18 13:46:48;;;;;;;8.38;3.13;;;;;;;;;;5007754;28;20182;-50
2022/06/18 13:49:17;;;;;;;6.05;2.13;;;;;;;;;;5008992;28;20200;-51
2022/06/18 13:51:45;;;;;;;9.05;2.40;;;;;;;;;;5009753;28;20235;-52
2022/06/18 13:54:13;;;;;;;7.18;2.65;;;;;;;;;;5007875;28;20574;-51
2022/06/18 13:56:43;;;;;;;8.23;2.47;;;;;;;;;;4994421;28;20180;-46
2022/06/18 13:59:16;;;;;;;7.57;2.10;;;;;;;;;;5011952;28;20279;-54
2022/06/18 14:01:47;;;;;;;8.00;2.25;;;;;;;;;;5000546;28;20185;-46
2022/06/18 14:04:19;;;;;;;7.82;2.85;;;;;;;;;;5012770;28;20188;-46
2022/06/18 14:06:50;;;;;;;9.82;2.47;;;;;;;;;;4978164;28;20177;-45
2022/06/18 14:09:19;;;;;;;9.38;2.10;;;;;;;;;;5012537;28;20235;-48
2022/06/18 14:11:49;;;;;;;5.95;2.60;;;;;;;;;;4996795;28;20189;-46
2022/06/18 14:14:26;;;;;;;6.40;2.15;;;;;;;;;;4986471;28;20189;-49
2022/06/18 14:17:19;;;;;;;5.80;2.40;;;;;;;;;;5006108;28;20255;-51
2022/06/18 14:19:57;;;;;;;9.95;2.80;;;;;;;;;;5009498;28;20200;-48
2022/06/18 14:22:25;;;;;;;7.57;2.45;;;;;;;;;;5010343;28;20176;-49
2022/06/18 14:24:54;;;;;;;5.50;2.55;;;;;;;;;;5012688;28;20238;-48
2022/06/18 14:27:24;;;;;;;7.57;1.73;;;;;;;;;;5011102;28;20252;-47
2022/06/18 14:29:50;;;;;;;5.88;1.92;;;;;;;;;;5011326;28;20411;-46
2022/06/18 14:32:21;;;;;;;4.88;1.85;;;;;;;;;;5000752;28;20204;-49
2022/06/18 14:34:54;;;;;;;6.07;1.90;;;;;;;;;;4995445;28;20184;-50
2022/06/18 14:37:20;;;;;;;5.57;2.03;;;;;;;;;;5012060;28;20184;-50
2022/06/18 14:39:48;;;;;;;6.93;2.15;;;;;;;;;;4994131;28;20333;-52
2022/06/18 14:42:20;;;;;;;6.50;1.77;;;;;;;;;;5002495;28;20188;-52
2022/06/18 14:44:50;;;;;;;8.30;2.40;;;;;;;;;;5011823;28;20188;-48
2022/06/18 14:47:35;;;;;;;12.38;2.60;;;;;;;;;;5011557;28;20188;-51
2022/06/18 14:50:07;;;;;;;6.40;2.08;;;;;;;;;;4994442;28;20243;-48
2022/06/18 14:52:52;;;;;;;5.90;2.10;;;;;;;;;;5009021;28;20651;-47
2022/06/18 14:55:27;;;;;;;3.55;1.77;;;;;;;;;;5012900;28;20211;-50
2022/06/18 14:58:13;;;;;;;6.05;2.00;;;;;;;;;;5012106;28;20187;-49
2022/06/18 15:00:49;;;;;;;6.50;1.80;;;;;;;;;;5011435;28;20323;-49
2022/06/18 15:03:22;;;;;;;7.78;2.03;;;;;;;;;;5009488;28;20230;-49
2022/06/18 15:05:56;;;;;;;4.40;1.75;;;;;;;;;;5013410;28;20295;-48
2022/06/18 15:08:22;;;;;;;7.47;2.10;;;;;;;;;;5012116;28;20739;-55
2022/06/18 15:10:54;;;;;;;5.05;1.90;;;;;;;;;;4995353;28;20208;-45
2022/06/18 15:13:20;;;;;;;7.18;1.92;;;;;;;;;;5009529;28;20193;-47
2022/06/18 15:16:06;;;;;;;6.07;2.03;;;;;;;;;;5012825;28;20271;-53
2022/06/18 15:18:48;;;;;;;7.40;2.45;;;;;;;;;;5009564;28;20180;-51
2022/06/18 15:24:11;;;;;;;10.70;4.25;;;;;;;;;;5013375;28;20362;-50